Terminal Aerodrome Forecast
Issued by NWS Northern Indiana

Home | Current Version | Previous Version | Text Only | Print | Product List | Glossary Off
Versions: 1 2 3 4 5 6 7 8 9 10 11 12 13 14 15 16

000
FTUS43 KIWX 260539
TAFFWA
TAF
KFWA 260539Z 2606/2706 33003KT P6SM BKN035
     FM261400 33006KT P6SM BKN035
     FM262300 30003KT P6SM SCT040=

USA.gov is the U.S. government's official web portal to all federal, state and local government web resources and services.